Terminal Aerodrome Forecast
Issued by NWS

Home | Current Version | Previous Version | Text Only | Print | Product List | Glossary On
Versions: 1 2 3 4 5 6 7 8 9 10 11 12 13
940
FTUS43 KIND 312320
TAFHUF
TAF
KHUF 312320Z 0100/0124 00000KT P6SM SCT250
     FM011200 VRB03KT P6SM SCT060 BKN200 PROB30 0112/0116 4SM -TSRA
      BKN060CB
     FM011600 VRB03KT P6SM -SHRA BKN060 PROB30 0116/0121 4SM TSRA
      BKN040CB
     FM012100 VRB03KT P6SM VCTS BKN040CB=

USA.gov is the U.S. government's official web portal to all federal, state and local government web resources and services.